sensor_id;sensor_type;location;lat;lon;timestamp;P1;durP1;ratioP1;P2;durP2;ratioP2
1204;SDS011;592;48.764;9.174;2022-10-28T00:00:44;9.07;;;4.33;;
1204;SDS011;592;48.764;9.174;2022-10-28T00:03:11;15.23;;;4.60;;
1204;SDS011;592;48.764;9.174;2022-10-28T00:05:38;9.37;;;4.70;;
1204;SDS011;592;48.764;9.174;2022-10-28T00:08:06;8.93;;;4.90;;
1204;SDS011;592;48.764;9.174;2022-10-28T00:10:32;10.90;;;4.73;;
1204;SDS011;592;48.764;9.174;2022-10-28T00:12:59;15.10;;;5.27;;
1204;SDS011;592;48.764;9.174;2022-10-28T00:15:26;13.43;;;4.70;;
1204;SDS011;592;48.764;9.174;2022-10-28T00:17:53;11.43;;;4.77;;
1204;SDS011;592;48.764;9.174;2022-10-28T00:20:19;10.60;;;4.60;;
1204;SDS011;592;48.764;9.174;2022-10-28T00:22:46;12.80;;;5.00;;
1204;SDS011;592;48.764;9.174;2022-10-28T00:25:14;12.90;;;5.53;;
1204;SDS011;592;48.764;9.174;2022-10-28T00:27:41;9.30;;;4.60;;
1204;SDS011;592;48.764;9.174;2022-10-28T00:30:08;12.20;;;5.03;;
1204;SDS011;592;48.764;9.174;2022-10-28T00:32:36;9.77;;;4.90;;
1204;SDS011;592;48.764;9.174;2022-10-28T00:35:02;9.50;;;4.17;;
1204;SDS011;592;48.764;9.174;2022-10-28T00:37:30;15.53;;;4.67;;
1204;SDS011;592;48.764;9.174;2022-10-28T00:39:56;9.93;;;4.83;;
1204;SDS011;592;48.764;9.174;2022-10-28T00:42:24;13.30;;;4.90;;
1204;SDS011;592;48.764;9.174;2022-10-28T00:44:52;11.60;;;5.20;;
1204;SDS011;592;48.764;9.174;2022-10-28T00:47:25;10.00;;;4.70;;
1204;SDS011;592;48.764;9.174;2022-10-28T00:50:10;10.70;;;4.70;;
1204;SDS011;592;48.764;9.174;2022-10-28T00:52:46;14.40;;;5.50;;
1204;SDS011;592;48.764;9.174;2022-10-28T00:55:17;13.80;;;6.03;;
1204;SDS011;592;48.764;9.174;2022-10-28T00:57:47;12.90;;;5.23;;
1204;SDS011;592;48.764;9.174;2022-10-28T01:00:15;13.67;;;4.97;;
1204;SDS011;592;48.764;9.174;2022-10-28T01:02:43;10.50;;;4.50;;
1204;SDS011;592;48.764;9.174;2022-10-28T01:05:12;12.40;;;5.13;;
1204;SDS011;592;48.764;9.174;2022-10-28T01:07:41;10.90;;;5.20;;
1204;SDS011;592;48.764;9.174;2022-10-28T01:10:09;9.67;;;5.00;;
1204;SDS011;592;48.764;9.174;2022-10-28T01:12:40;7.70;;;4.90;;
1204;SDS011;592;48.764;9.174;2022-10-28T01:15:26;8.53;;;4.80;;
1204;SDS011;592;48.764;9.174;2022-10-28T01:18:02;11.30;;;4.77;;
1204;SDS011;592;48.764;9.174;2022-10-28T01:20:41;7.43;;;4.70;;
1204;SDS011;592;48.764;9.174;2022-10-28T01:23:24;11.30;;;4.87;;
1204;SDS011;592;48.764;9.174;2022-10-28T01:26:00;11.50;;;5.20;;
1204;SDS011;592;48.764;9.174;2022-10-28T01:32:14;11.57;;;4.87;;
1204;SDS011;592;48.764;9.174;2022-10-28T01:34:50;12.70;;;4.73;;
1204;SDS011;592;48.764;9.174;2022-10-28T01:37:26;10.17;;;5.47;;
1204;SDS011;592;48.764;9.174;2022-10-28T01:40:01;13.30;;;4.70;;
1204;SDS011;592;48.764;9.174;2022-10-28T01:42:34;10.33;;;4.40;;
1204;SDS011;592;48.764;9.174;2022-10-28T01:45:07;10.03;;;5.17;;
1204;SDS011;592;48.764;9.174;2022-10-28T01:47:41;10.30;;;4.47;;
1204;SDS011;592;48.764;9.174;2022-10-28T01:50:15;9.87;;;4.97;;
1204;SDS011;592;48.764;9.174;2022-10-28T01:52:47;11.53;;;6.03;;
1204;SDS011;592;48.764;9.174;2022-10-28T01:55:16;9.37;;;4.80;;
1204;SDS011;592;48.764;9.174;2022-10-28T01:57:46;9.40;;;4.80;;
1204;SDS011;592;48.764;9.174;2022-10-28T02:00:15;10.30;;;4.50;;
1204;SDS011;592;48.764;9.174;2022-10-28T02:02:44;16.27;;;5.30;;
1204;SDS011;592;48.764;9.174;2022-10-28T02:08:06;12.60;;;5.17;;
1204;SDS011;592;48.764;9.174;2022-10-28T02:10:48;11.33;;;5.17;;
1204;SDS011;592;48.764;9.174;2022-10-28T02:13:24;10.47;;;5.63;;
1204;SDS011;592;48.764;9.174;2022-10-28T02:16:03;16.77;;;6.00;;
1204;SDS011;592;48.764;9.174;2022-10-28T02:18:40;12.50;;;4.80;;
1204;SDS011;592;48.764;9.174;2022-10-28T02:21:13;10.33;;;4.90;;
1204;SDS011;592;48.764;9.174;2022-10-28T02:23:45;13.93;;;4.67;;
1204;SDS011;592;48.764;9.174;2022-10-28T02:26:19;10.23;;;5.30;;
1204;SDS011;592;48.764;9.174;2022-10-28T02:28:53;10.63;;;5.67;;
1204;SDS011;592;48.764;9.174;2022-10-28T02:31:27;10.30;;;5.93;;
1204;SDS011;592;48.764;9.174;2022-10-28T02:33:59;8.20;;;5.07;;
1204;SDS011;592;48.764;9.174;2022-10-28T02:36:31;9.70;;;5.00;;
1204;SDS011;592;48.764;9.174;2022-10-28T02:39:03;12.33;;;4.80;;
1204;SDS011;592;48.764;9.174;2022-10-28T02:41:32;10.40;;;4.77;;
1204;SDS011;592;48.764;9.174;2022-10-28T02:44:04;12.63;;;5.80;;
1204;SDS011;592;48.764;9.174;2022-10-28T02:46:34;13.13;;;5.33;;
1204;SDS011;592;48.764;9.174;2022-10-28T02:49:06;11.63;;;4.63;;
1204;SDS011;592;48.764;9.174;2022-10-28T02:51:36;10.27;;;6.10;;
1204;SDS011;592;48.764;9.174;2022-10-28T02:54:06;16.43;;;6.93;;
1204;SDS011;592;48.764;9.174;2022-10-28T02:56:36;10.50;;;5.70;;
1204;SDS011;592;48.764;9.174;2022-10-28T02:59:08;10.83;;;5.40;;
1204;SDS011;592;48.764;9.174;2022-10-28T03:01:36;11.47;;;5.23;;
1204;SDS011;592;48.764;9.174;2022-10-28T03:04:03;10.13;;;5.40;;
1204;SDS011;592;48.764;9.174;2022-10-28T03:06:32;12.00;;;5.30;;
1204;SDS011;592;48.764;9.174;2022-10-28T03:08:58;15.73;;;6.10;;
1204;SDS011;592;48.764;9.174;2022-10-28T03:11:25;11.93;;;5.20;;
1204;SDS011;592;48.764;9.174;2022-10-28T03:13:52;10.30;;;5.80;;
1204;SDS011;592;48.764;9.174;2022-10-28T03:16:19;11.73;;;5.50;;
1204;SDS011;592;48.764;9.174;2022-10-28T03:18:45;11.10;;;5.30;;
1204;SDS011;592;48.764;9.174;2022-10-28T03:21:12;14.77;;;5.57;;
1204;SDS011;592;48.764;9.174;2022-10-28T03:23:40;12.20;;;5.80;;
1204;SDS011;592;48.764;9.174;2022-10-28T03:26:07;12.47;;;5.30;;
1204;SDS011;592;48.764;9.174;2022-10-28T03:28:34;11.50;;;5.27;;
1204;SDS011;592;48.764;9.174;2022-10-28T03:31:00;9.73;;;5.00;;
1204;SDS011;592;48.764;9.174;2022-10-28T03:33:27;13.43;;;5.03;;
1204;SDS011;592;48.764;9.174;2022-10-28T03:35:54;12.97;;;5.80;;
1204;SDS011;592;48.764;9.174;2022-10-28T03:38:21;8.73;;;4.80;;
1204;SDS011;592;48.764;9.174;2022-10-28T03:40:49;13.90;;;5.20;;
1204;SDS011;592;48.764;9.174;2022-10-28T03:43:16;11.00;;;5.10;;
1204;SDS011;592;48.764;9.174;2022-10-28T03:45:43;9.77;;;4.70;;
1204;SDS011;592;48.764;9.174;2022-10-28T03:48:10;12.30;;;4.90;;
1204;SDS011;592;48.764;9.174;2022-10-28T03:50:36;17.10;;;5.80;;
1204;SDS011;592;48.764;9.174;2022-10-28T03:53:03;11.77;;;5.57;;
1204;SDS011;592;48.764;9.174;2022-10-28T03:55:30;10.50;;;5.30;;
1204;SDS011;592;48.764;9.174;2022-10-28T03:58:00;10.70;;;5.03;;
1204;SDS011;592;48.764;9.174;2022-10-28T04:00:27;9.47;;;5.27;;
1204;SDS011;592;48.764;9.174;2022-10-28T04:02:54;12.23;;;4.67;;
1204;SDS011;592;48.764;9.174;2022-10-28T04:05:20;12.20;;;5.70;;
1204;SDS011;592;48.764;9.174;2022-10-28T04:07:47;19.30;;;6.80;;
1204;SDS011;592;48.764;9.174;2022-10-28T04:10:14;15.53;;;5.70;;
1204;SDS011;592;48.764;9.174;2022-10-28T04:12:41;14.73;;;5.77;;
1204;SDS011;592;48.764;9.174;2022-10-28T04:15:09;11.67;;;5.73;;
1204;SDS011;592;48.764;9.174;2022-10-28T04:17:36;15.53;;;6.10;;
1204;SDS011;592;48.764;9.174;2022-10-28T04:20:03;12.77;;;5.10;;
1204;SDS011;592;48.764;9.174;2022-10-28T04:22:30;10.90;;;5.70;;
1204;SDS011;592;48.764;9.174;2022-10-28T04:24:57;12.93;;;5.60;;
1204;SDS011;592;48.764;9.174;2022-10-28T04:27:24;13.87;;;5.20;;
1204;SDS011;592;48.764;9.174;2022-10-28T04:29:50;13.60;;;5.93;;
1204;SDS011;592;48.764;9.174;2022-10-28T04:32:18;9.30;;;4.80;;
1204;SDS011;592;48.764;9.174;2022-10-28T04:34:45;10.47;;;5.13;;
1204;SDS011;592;48.764;9.174;2022-10-28T04:37:12;10.20;;;5.03;;
1204;SDS011;592;48.764;9.174;2022-10-28T04:39:39;11.70;;;5.20;;
1204;SDS011;592;48.764;9.174;2022-10-28T04:42:05;12.73;;;5.47;;
1204;SDS011;592;48.764;9.174;2022-10-28T04:44:32;13.23;;;5.60;;
1204;SDS011;592;48.764;9.174;2022-10-28T04:46:59;11.20;;;5.10;;
1204;SDS011;592;48.764;9.174;2022-10-28T04:49:27;14.13;;;5.50;;
1204;SDS011;592;48.764;9.174;2022-10-28T04:51:54;12.13;;;5.03;;
1204;SDS011;592;48.764;9.174;2022-10-28T04:54:20;9.50;;;5.00;;
1204;SDS011;592;48.764;9.174;2022-10-28T04:56:47;12.00;;;5.03;;
1204;SDS011;592;48.764;9.174;2022-10-28T04:59:14;13.73;;;5.77;;
1204;SDS011;592;48.764;9.174;2022-10-28T05:01:41;11.67;;;5.70;;
1204;SDS011;592;48.764;9.174;2022-10-28T05:04:07;13.33;;;5.33;;
1204;SDS011;592;48.764;9.174;2022-10-28T05:06:36;9.93;;;4.83;;
1204;SDS011;592;48.764;9.174;2022-10-28T05:09:03;11.97;;;5.30;;
1204;SDS011;592;48.764;9.174;2022-10-28T05:11:29;10.57;;;5.80;;
1204;SDS011;592;48.764;9.174;2022-10-28T05:13:56;9.67;;;4.83;;
1204;SDS011;592;48.764;9.174;2022-10-28T05:16:23;10.83;;;4.77;;
1204;SDS011;592;48.764;9.174;2022-10-28T05:18:50;12.17;;;5.40;;
1204;SDS011;592;48.764;9.174;2022-10-28T05:21:16;8.70;;;4.77;;
1204;SDS011;592;48.764;9.174;2022-10-28T05:23:45;14.40;;;5.20;;
1204;SDS011;592;48.764;9.174;2022-10-28T05:26:12;9.77;;;4.60;;
1204;SDS011;592;48.764;9.174;2022-10-28T05:28:38;12.57;;;6.00;;
1204;SDS011;592;48.764;9.174;2022-10-28T05:31:05;14.90;;;4.83;;
1204;SDS011;592;48.764;9.174;2022-10-28T05:33:32;9.03;;;4.57;;
1204;SDS011;592;48.764;9.174;2022-10-28T05:35:59;20.90;;;6.43;;
1204;SDS011;592;48.764;9.174;2022-10-28T05:38:26;18.07;;;6.57;;
1204;SDS011;592;48.764;9.174;2022-10-28T05:40:54;14.00;;;6.03;;
1204;SDS011;592;48.764;9.174;2022-10-28T05:43:21;11.30;;;5.00;;
1204;SDS011;592;48.764;9.174;2022-10-28T05:45:50;13.00;;;4.00;;
1204;SDS011;592;48.764;9.174;2022-10-28T05:48:17;9.90;;;4.23;;
1204;SDS011;592;48.764;9.174;2022-10-28T05:50:44;12.37;;;4.20;;
1204;SDS011;592;48.764;9.174;2022-10-28T05:53:11;9.13;;;3.73;;
1204;SDS011;592;48.764;9.174;2022-10-28T05:55:38;13.53;;;4.73;;
1204;SDS011;592;48.764;9.174;2022-10-28T05:58:06;9.93;;;4.50;;
1204;SDS011;592;48.764;9.174;2022-10-28T06:00:34;10.07;;;4.17;;
1204;SDS011;592;48.764;9.174;2022-10-28T06:03:09;9.10;;;4.70;;
1204;SDS011;592;48.764;9.174;2022-10-28T06:05:54;10.67;;;3.90;;
1204;SDS011;592;48.764;9.174;2022-10-28T06:08:22;8.33;;;3.40;;
1204;SDS011;592;48.764;9.174;2022-10-28T06:10:49;10.60;;;4.60;;
1204;SDS011;592;48.764;9.174;2022-10-28T06:13:18;9.30;;;4.00;;
1204;SDS011;592;48.764;9.174;2022-10-28T06:15:49;9.00;;;3.57;;
1204;SDS011;592;48.764;9.174;2022-10-28T06:18:16;10.63;;;3.43;;
1204;SDS011;592;48.764;9.174;2022-10-28T06:20:43;8.13;;;3.70;;
1204;SDS011;592;48.764;9.174;2022-10-28T06:23:09;11.47;;;3.53;;
1204;SDS011;592;48.764;9.174;2022-10-28T06:25:36;8.23;;;3.33;;
1204;SDS011;592;48.764;9.174;2022-10-28T06:28:12;11.70;;;3.40;;
1204;SDS011;592;48.764;9.174;2022-10-28T06:30:40;12.20;;;4.63;;
1204;SDS011;592;48.764;9.174;2022-10-28T06:33:06;10.10;;;4.10;;
1204;SDS011;592;48.764;9.174;2022-10-28T06:35:33;8.43;;;4.23;;
1204;SDS011;592;48.764;9.174;2022-10-28T06:38:00;12.93;;;4.30;;
1204;SDS011;592;48.764;9.174;2022-10-28T06:40:27;8.87;;;4.03;;
1204;SDS011;592;48.764;9.174;2022-10-28T06:42:57;9.43;;;4.20;;
1204;SDS011;592;48.764;9.174;2022-10-28T06:45:24;9.00;;;4.37;;
1204;SDS011;592;48.764;9.174;2022-10-28T06:47:56;10.60;;;5.50;;
1204;SDS011;592;48.764;9.174;2022-10-28T06:50:24;11.90;;;4.57;;
1204;SDS011;592;48.764;9.174;2022-10-28T06:52:51;17.53;;;4.47;;
1204;SDS011;592;48.764;9.174;2022-10-28T06:55:20;13.30;;;4.60;;
1204;SDS011;592;48.764;9.174;2022-10-28T06:57:46;14.27;;;4.47;;
1204;SDS011;592;48.764;9.174;2022-10-28T07:00:13;13.80;;;3.90;;
1204;SDS011;592;48.764;9.174;2022-10-28T07:02:41;13.23;;;4.10;;
1204;SDS011;592;48.764;9.174;2022-10-28T07:05:09;8.90;;;4.00;;
1204;SDS011;592;48.764;9.174;2022-10-28T07:07:36;7.47;;;3.50;;
1204;SDS011;592;48.764;9.174;2022-10-28T07:10:03;7.97;;;3.40;;
1204;SDS011;592;48.764;9.174;2022-10-28T07:12:30;6.80;;;3.27;;
1204;SDS011;592;48.764;9.174;2022-10-28T07:14:57;12.13;;;3.70;;
1204;SDS011;592;48.764;9.174;2022-10-28T07:17:24;11.40;;;4.10;;
1204;SDS011;592;48.764;9.174;2022-10-28T07:19:51;9.23;;;3.60;;
1204;SDS011;592;48.764;9.174;2022-10-28T07:22:19;12.23;;;4.63;;
1204;SDS011;592;48.764;9.174;2022-10-28T07:24:46;10.30;;;3.80;;
1204;SDS011;592;48.764;9.174;2022-10-28T07:27:12;12.40;;;3.87;;
1204;SDS011;592;48.764;9.174;2022-10-28T07:29:39;8.30;;;3.80;;
1204;SDS011;592;48.764;9.174;2022-10-28T07:32:06;10.23;;;4.03;;
1204;SDS011;592;48.764;9.174;2022-10-28T07:34:32;12.40;;;3.93;;
1204;SDS011;592;48.764;9.174;2022-10-28T07:36:59;15.07;;;4.37;;
1204;SDS011;592;48.764;9.174;2022-10-28T07:39:27;8.17;;;3.70;;
1204;SDS011;592;48.764;9.174;2022-10-28T07:41:55;14.97;;;3.70;;
1204;SDS011;592;48.764;9.174;2022-10-28T07:44:22;12.20;;;3.73;;
1204;SDS011;592;48.764;9.174;2022-10-28T07:46:48;15.13;;;4.37;;
1204;SDS011;592;48.764;9.174;2022-10-28T07:49:15;15.57;;;4.20;;
1204;SDS011;592;48.764;9.174;2022-10-28T07:51:42;13.77;;;4.40;;
1204;SDS011;592;48.764;9.174;2022-10-28T07:54:09;10.90;;;4.17;;
1204;SDS011;592;48.764;9.174;2022-10-28T07:56:37;9.80;;;4.33;;
1204;SDS011;592;48.764;9.174;2022-10-28T07:59:04;11.50;;;5.20;;
1204;SDS011;592;48.764;9.174;2022-10-28T08:01:30;12.40;;;5.63;;
1204;SDS011;592;48.764;9.174;2022-10-28T08:03:57;13.00;;;5.73;;
1204;SDS011;592;48.764;9.174;2022-10-28T08:06:24;11.10;;;5.33;;
1204;SDS011;592;48.764;9.174;2022-10-28T08:08:52;21.07;;;7.20;;
1204;SDS011;592;48.764;9.174;2022-10-28T08:11:20;21.50;;;6.30;;
1204;SDS011;592;48.764;9.174;2022-10-28T08:13:50;8.90;;;5.10;;
1204;SDS011;592;48.764;9.174;2022-10-28T08:16:19;17.90;;;6.20;;
1204;SDS011;592;48.764;9.174;2022-10-28T08:18:46;23.63;;;5.57;;
1204;SDS011;592;48.764;9.174;2022-10-28T08:21:12;11.83;;;5.13;;
1204;SDS011;592;48.764;9.174;2022-10-28T08:23:39;10.57;;;5.23;;
1204;SDS011;592;48.764;9.174;2022-10-28T08:26:10;14.53;;;4.80;;
1204;SDS011;592;48.764;9.174;2022-10-28T08:28:38;13.20;;;5.50;;
1204;SDS011;592;48.764;9.174;2022-10-28T08:31:06;9.47;;;5.13;;
1204;SDS011;592;48.764;9.174;2022-10-28T08:33:34;10.47;;;5.00;;
1204;SDS011;592;48.764;9.174;2022-10-28T08:36:02;13.10;;;5.00;;
1204;SDS011;592;48.764;9.174;2022-10-28T08:38:28;10.23;;;5.07;;
1204;SDS011;592;48.764;9.174;2022-10-28T08:40:57;16.87;;;6.23;;
1204;SDS011;592;48.764;9.174;2022-10-28T08:43:34;15.67;;;5.37;;
1204;SDS011;592;48.764;9.174;2022-10-28T08:46:10;11.97;;;5.50;;
1204;SDS011;592;48.764;9.174;2022-10-28T08:48:45;15.60;;;5.63;;
1204;SDS011;592;48.764;9.174;2022-10-28T08:51:13;9.87;;;5.07;;
1204;SDS011;592;48.764;9.174;2022-10-28T08:53:43;12.47;;;4.87;;
1204;SDS011;592;48.764;9.174;2022-10-28T08:56:14;10.70;;;5.00;;
1204;SDS011;592;48.764;9.174;2022-10-28T08:58:44;12.93;;;5.47;;
1204;SDS011;592;48.764;9.174;2022-10-28T09:01:17;8.63;;;4.10;;
1204;SDS011;592;48.764;9.174;2022-10-28T09:03:47;10.23;;;4.23;;
1204;SDS011;592;48.764;9.174;2022-10-28T09:06:17;10.80;;;4.23;;
1204;SDS011;592;48.764;9.174;2022-10-28T09:08:44;8.30;;;3.33;;
1204;SDS011;592;48.764;9.174;2022-10-28T09:11:35;15.40;;;3.27;;
1204;SDS011;592;48.764;9.174;2022-10-28T09:14:13;13.30;;;4.70;;
1204;SDS011;592;48.764;9.174;2022-10-28T09:16:48;17.63;;;5.47;;
1204;SDS011;592;48.764;9.174;2022-10-28T09:19:25;16.97;;;5.20;;
1204;SDS011;592;48.764;9.174;2022-10-28T09:22:04;21.90;;;8.47;;
1204;SDS011;592;48.764;9.174;2022-10-28T09:24:44;24.30;;;9.37;;
1204;SDS011;592;48.764;9.174;2022-10-28T09:27:18;16.17;;;8.97;;
1204;SDS011;592;48.764;9.174;2022-10-28T09:29:57;18.83;;;8.73;;
1204;SDS011;592;48.764;9.174;2022-10-28T09:32:34;19.20;;;7.90;;
1204;SDS011;592;48.764;9.174;2022-10-28T09:35:07;17.10;;;8.30;;
1204;SDS011;592;48.764;9.174;2022-10-28T09:37:39;22.63;;;7.90;;
1204;SDS011;592;48.764;9.174;2022-10-28T09:40:12;13.70;;;6.70;;
1204;SDS011;592;48.764;9.174;2022-10-28T09:42:43;16.03;;;7.43;;
1204;SDS011;592;48.764;9.174;2022-10-28T09:45:16;13.37;;;5.07;;
1204;SDS011;592;48.764;9.174;2022-10-28T09:47:48;13.57;;;5.57;;
1204;SDS011;592;48.764;9.174;2022-10-28T09:50:21;14.00;;;6.07;;
1204;SDS011;592;48.764;9.174;2022-10-28T09:52:52;13.53;;;5.00;;
1204;SDS011;592;48.764;9.174;2022-10-28T09:55:24;13.20;;;4.03;;
1204;SDS011;592;48.764;9.174;2022-10-28T09:57:51;8.83;;;3.47;;
1204;SDS011;592;48.764;9.174;2022-10-28T10:00:18;9.73;;;2.87;;
1204;SDS011;592;48.764;9.174;2022-10-28T10:02:45;9.00;;;3.13;;
1204;SDS011;592;48.764;9.174;2022-10-28T10:05:14;9.37;;;3.13;;
1204;SDS011;592;48.764;9.174;2022-10-28T10:07:43;10.83;;;3.53;;
1204;SDS011;592;48.764;9.174;2022-10-28T10:10:14;6.63;;;2.80;;
1204;SDS011;592;48.764;9.174;2022-10-28T10:12:45;11.43;;;3.73;;
1204;SDS011;592;48.764;9.174;2022-10-28T10:15:15;9.07;;;3.17;;
1204;SDS011;592;48.764;9.174;2022-10-28T10:17:50;10.57;;;3.07;;
1204;SDS011;592;48.764;9.174;2022-10-28T10:20:19;8.20;;;3.50;;
1204;SDS011;592;48.764;9.174;2022-10-28T10:22:47;13.97;;;3.90;;
1204;SDS011;592;48.764;9.174;2022-10-28T10:25:22;9.93;;;3.00;;
1204;SDS011;592;48.764;9.174;2022-10-28T10:27:54;8.10;;;3.10;;
1204;SDS011;592;48.764;9.174;2022-10-28T10:30:24;10.17;;;3.80;;
1204;SDS011;592;48.764;9.174;2022-10-28T10:32:54;12.13;;;3.63;;
1204;SDS011;592;48.764;9.174;2022-10-28T10:35:24;9.33;;;3.30;;
1204;SDS011;592;48.764;9.174;2022-10-28T10:37:54;7.10;;;2.90;;
1204;SDS011;592;48.764;9.174;2022-10-28T10:40:25;6.90;;;3.20;;
1204;SDS011;592;48.764;9.174;2022-10-28T10:42:55;13.13;;;3.83;;
1204;SDS011;592;48.764;9.174;2022-10-28T10:45:39;10.73;;;4.00;;
1204;SDS011;592;48.764;9.174;2022-10-28T10:48:10;11.90;;;4.13;;
1204;SDS011;592;48.764;9.174;2022-10-28T10:50:40;14.87;;;4.13;;
1204;SDS011;592;48.764;9.174;2022-10-28T10:53:15;8.90;;;3.40;;
1204;SDS011;592;48.764;9.174;2022-10-28T10:55:47;5.90;;;3.20;;
1204;SDS011;592;48.764;9.174;2022-10-28T10:58:16;15.70;;;3.17;;
1204;SDS011;592;48.764;9.174;2022-10-28T11:00:46;9.03;;;3.90;;
1204;SDS011;592;48.764;9.174;2022-10-28T11:03:16;9.53;;;3.97;;
1204;SDS011;592;48.764;9.174;2022-10-28T11:05:48;8.80;;;3.67;;
1204;SDS011;592;48.764;9.174;2022-10-28T11:08:27;12.00;;;3.90;;
1204;SDS011;592;48.764;9.174;2022-10-28T11:11:09;9.10;;;3.50;;
1204;SDS011;592;48.764;9.174;2022-10-28T11:13:39;7.00;;;2.80;;
1204;SDS011;592;48.764;9.174;2022-10-28T11:16:14;9.47;;;3.60;;
1204;SDS011;592;48.764;9.174;2022-10-28T11:18:44;13.50;;;3.53;;
1204;SDS011;592;48.764;9.174;2022-10-28T11:21:17;11.77;;;3.40;;
1204;SDS011;592;48.764;9.174;2022-10-28T11:24:11;8.03;;;3.17;;
1204;SDS011;592;48.764;9.174;2022-10-28T11:27:03;8.17;;;3.57;;
1204;SDS011;592;48.764;9.174;2022-10-28T11:29:39;9.30;;;3.47;;
1204;SDS011;592;48.764;9.174;2022-10-28T11:32:08;18.60;;;3.53;;
1204;SDS011;592;48.764;9.174;2022-10-28T11:34:51;13.03;;;5.07;;
1204;SDS011;592;48.764;9.174;2022-10-28T11:37:46;22.43;;;6.20;;
1204;SDS011;592;48.764;9.174;2022-10-28T11:40:24;13.47;;;5.97;;
1204;SDS011;592;48.764;9.174;2022-10-28T11:43:01;9.37;;;5.17;;
1204;SDS011;592;48.764;9.174;2022-10-28T11:45:41;15.73;;;6.30;;
1204;SDS011;592;48.764;9.174;2022-10-28T11:48:16;17.00;;;7.37;;
1204;SDS011;592;48.764;9.174;2022-10-28T11:50:57;11.87;;;4.90;;
1204;SDS011;592;48.764;9.174;2022-10-28T11:56:28;16.73;;;4.60;;
1204;SDS011;592;48.764;9.174;2022-10-28T11:59:06;17.57;;;7.17;;
1204;SDS011;592;48.764;9.174;2022-10-28T12:02:09;12.33;;;5.43;;
1204;SDS011;592;48.764;9.174;2022-10-28T12:04:51;8.30;;;3.70;;
1204;SDS011;592;48.764;9.174;2022-10-28T12:07:29;11.97;;;3.40;;
1204;SDS011;592;48.764;9.174;2022-10-28T12:10:15;9.80;;;4.20;;
1204;SDS011;592;48.764;9.174;2022-10-28T12:12:58;9.53;;;3.40;;
1204;SDS011;592;48.764;9.174;2022-10-28T12:15:32;11.40;;;4.80;;
1204;SDS011;592;48.764;9.174;2022-10-28T12:18:06;13.43;;;3.40;;
1204;SDS011;592;48.764;9.174;2022-10-28T12:20:41;9.40;;;3.07;;
1204;SDS011;592;48.764;9.174;2022-10-28T12:23:15;8.67;;;3.33;;
1204;SDS011;592;48.764;9.174;2022-10-28T12:25:45;14.87;;;4.13;;
1204;SDS011;592;48.764;9.174;2022-10-28T12:28:15;9.50;;;3.57;;
1204;SDS011;592;48.764;9.174;2022-10-28T12:30:46;11.63;;;3.30;;
1204;SDS011;592;48.764;9.174;2022-10-28T12:33:16;12.10;;;4.27;;
1204;SDS011;592;48.764;9.174;2022-10-28T12:35:46;10.67;;;3.47;;
1204;SDS011;592;48.764;9.174;2022-10-28T12:38:17;10.97;;;3.40;;
1204;SDS011;592;48.764;9.174;2022-10-28T12:40:52;16.07;;;5.53;;
1204;SDS011;592;48.764;9.174;2022-10-28T12:43:28;16.30;;;6.13;;
1204;SDS011;592;48.764;9.174;2022-10-28T12:45:58;12.37;;;5.67;;
1204;SDS011;592;48.764;9.174;2022-10-28T12:48:27;18.10;;;6.20;;
1204;SDS011;592;48.764;9.174;2022-10-28T12:51:00;21.07;;;5.37;;
1204;SDS011;592;48.764;9.174;2022-10-28T12:53:32;11.93;;;5.17;;
1204;SDS011;592;48.764;9.174;2022-10-28T12:56:05;15.30;;;5.63;;
1204;SDS011;592;48.764;9.174;2022-10-28T12:58:37;12.60;;;5.07;;
1204;SDS011;592;48.764;9.174;2022-10-28T13:01:11;10.37;;;5.03;;
1204;SDS011;592;48.764;9.174;2022-10-28T13:03:40;11.63;;;5.00;;
1204;SDS011;592;48.764;9.174;2022-10-28T13:06:13;9.70;;;4.67;;
1204;SDS011;592;48.764;9.174;2022-10-28T13:09:15;12.13;;;4.80;;
1204;SDS011;592;48.764;9.174;2022-10-28T13:12:19;9.10;;;5.10;;
1204;SDS011;592;48.764;9.174;2022-10-28T13:15:07;11.37;;;5.70;;
1204;SDS011;592;48.764;9.174;2022-10-28T13:18:05;12.60;;;6.37;;
1204;SDS011;592;48.764;9.174;2022-10-28T13:20:53;13.90;;;6.03;;
1204;SDS011;592;48.764;9.174;2022-10-28T13:23:32;23.37;;;6.63;;
1204;SDS011;592;48.764;9.174;2022-10-28T13:26:06;16.07;;;7.23;;
1204;SDS011;592;48.764;9.174;2022-10-28T13:28:44;16.37;;;7.10;;
1204;SDS011;592;48.764;9.174;2022-10-28T13:31:13;16.50;;;7.10;;
1204;SDS011;592;48.764;9.174;2022-10-28T13:33:45;17.40;;;7.47;;
1204;SDS011;592;48.764;9.174;2022-10-28T13:36:18;15.67;;;5.80;;
1204;SDS011;592;48.764;9.174;2022-10-28T13:38:50;16.23;;;6.57;;
1204;SDS011;592;48.764;9.174;2022-10-28T13:41:26;12.83;;;6.80;;
1204;SDS011;592;48.764;9.174;2022-10-28T13:43:57;13.53;;;6.50;;
1204;SDS011;592;48.764;9.174;2022-10-28T13:49:40;10.93;;;4.60;;
1204;SDS011;592;48.764;9.174;2022-10-28T13:52:40;11.53;;;4.67;;
1204;SDS011;592;48.764;9.174;2022-10-28T13:55:19;13.20;;;5.13;;
1204;SDS011;592;48.764;9.174;2022-10-28T13:57:49;15.13;;;4.30;;
1204;SDS011;592;48.764;9.174;2022-10-28T14:00:34;11.73;;;3.77;;
1204;SDS011;592;48.764;9.174;2022-10-28T14:03:02;11.67;;;3.50;;
1204;SDS011;592;48.764;9.174;2022-10-28T14:05:49;15.70;;;4.30;;
1204;SDS011;592;48.764;9.174;2022-10-28T14:08:23;9.70;;;3.60;;
1204;SDS011;592;48.764;9.174;2022-10-28T14:11:00;15.73;;;4.13;;
1204;SDS011;592;48.764;9.174;2022-10-28T14:13:28;14.00;;;3.93;;
1204;SDS011;592;48.764;9.174;2022-10-28T14:16:15;11.53;;;3.50;;
1204;SDS011;592;48.764;9.174;2022-10-28T14:18:51;9.30;;;3.37;;
1204;SDS011;592;48.764;9.174;2022-10-28T14:21:20;10.10;;;4.53;;
1204;SDS011;592;48.764;9.174;2022-10-28T14:30:13;17.13;;;4.87;;
1204;SDS011;592;48.764;9.174;2022-10-28T14:35:46;11.70;;;4.03;;
1204;SDS011;592;48.764;9.174;2022-10-28T14:38:30;8.73;;;3.57;;
1204;SDS011;592;48.764;9.174;2022-10-28T14:41:54;12.77;;;3.80;;
1204;SDS011;592;48.764;9.174;2022-10-28T14:44:36;10.20;;;3.60;;
1204;SDS011;592;48.764;9.174;2022-10-28T14:47:18;10.27;;;3.40;;
1204;SDS011;592;48.764;9.174;2022-10-28T14:50:00;14.50;;;3.40;;
1204;SDS011;592;48.764;9.174;2022-10-28T14:52:32;14.53;;;3.80;;
1204;SDS011;592;48.764;9.174;2022-10-28T14:55:02;13.03;;;4.03;;
1204;SDS011;592;48.764;9.174;2022-10-28T14:57:32;13.70;;;4.27;;
1204;SDS011;592;48.764;9.174;2022-10-28T15:00:00;14.83;;;4.03;;
1204;SDS011;592;48.764;9.174;2022-10-28T15:02:29;9.90;;;3.63;;
1204;SDS011;592;48.764;9.174;2022-10-28T15:05:01;7.47;;;3.63;;
1204;SDS011;592;48.764;9.174;2022-10-28T15:07:35;9.33;;;3.73;;
1204;SDS011;592;48.764;9.174;2022-10-28T15:10:10;19.20;;;3.60;;
1204;SDS011;592;48.764;9.174;2022-10-28T15:12:39;9.90;;;3.80;;
1204;SDS011;592;48.764;9.174;2022-10-28T15:15:15;12.53;;;4.30;;
1204;SDS011;592;48.764;9.174;2022-10-28T15:17:43;11.47;;;4.00;;
1204;SDS011;592;48.764;9.174;2022-10-28T15:20:17;12.10;;;4.23;;
1204;SDS011;592;48.764;9.174;2022-10-28T15:22:46;13.97;;;4.40;;
1204;SDS011;592;48.764;9.174;2022-10-28T15:25:14;12.03;;;4.20;;
1204;SDS011;592;48.764;9.174;2022-10-28T15:27:42;11.23;;;3.43;;
1204;SDS011;592;48.764;9.174;2022-10-28T15:30:12;12.77;;;3.80;;
1204;SDS011;592;48.764;9.174;2022-10-28T15:32:43;13.70;;;5.30;;
1204;SDS011;592;48.764;9.174;2022-10-28T15:40:59;11.20;;;3.80;;
1204;SDS011;592;48.764;9.174;2022-10-28T15:43:27;10.67;;;3.60;;
1204;SDS011;592;48.764;9.174;2022-10-28T15:45:54;12.53;;;4.23;;
1204;SDS011;592;48.764;9.174;2022-10-28T15:48:34;10.43;;;3.60;;
1204;SDS011;592;48.764;9.174;2022-10-28T15:51:10;11.13;;;4.00;;
1204;SDS011;592;48.764;9.174;2022-10-28T15:53:38;9.10;;;3.50;;
1204;SDS011;592;48.764;9.174;2022-10-28T15:56:07;13.23;;;4.20;;
1204;SDS011;592;48.764;9.174;2022-10-28T15:58:42;16.87;;;4.40;;
1204;SDS011;592;48.764;9.174;2022-10-28T16:01:25;8.47;;;3.87;;
1204;SDS011;592;48.764;9.174;2022-10-28T16:03:54;15.20;;;4.30;;
1204;SDS011;592;48.764;9.174;2022-10-28T16:06:24;17.13;;;4.50;;
1204;SDS011;592;48.764;9.174;2022-10-28T16:08:59;13.07;;;4.50;;
1204;SDS011;592;48.764;9.174;2022-10-28T16:11:28;12.43;;;4.73;;
1204;SDS011;592;48.764;9.174;2022-10-28T16:13:56;10.50;;;3.97;;